Time;durP1;ratioP1;P1;durP2;ratioP2;P2;SDS_P1;SDS_P2;PMS_P1;PMS_P2;Temp;Humidity;BMP_temperature;BMP_pressure;BME280_temperature;BME280_humidity;BME280_pressure;Samples;Min_cycle;Max_cycle;Signal;HPM_P1;HPM_P2
2021/04/07 00:00:41;;;;;;;1999.90;999.90;;;;;;;1.77;100.00;101015.94;5038419;28;20498;-29
2021/04/07 00:03:27;;;;;;;1999.90;999.90;;;;;;;1.84;100.00;100048.84;5040476;28;20448;-28
2021/04/07 00:06:16;;;;;;;1999.90;999.90;;;;;;;1.68;100.00;98064.84;5039039;28;20447;-29
2021/04/07 00:09:04;;;;;;;1999.90;999.90;;;;;;;1.53;100.00;96083.66;5042554;28;20439;-28
2021/04/07 00:11:50;;;;;;;1999.90;999.90;;;;;;;2.01;100.00;97466.31;5038858;28;20440;-29
2021/04/07 00:14:36;;;;;;;1999.90;999.90;;;;;;;1.89;100.00;94512.31;5038514;28;20482;-28
2021/04/07 00:17:23;;;;;;;1999.90;999.90;;;;;;;1.88;100.00;94183.91;5039620;28;20526;-29
2021/04/07 00:20:11;;;;;;;1999.90;999.90;;;;;;;1.65;100.00;92519.53;5038680;28;20753;-29
2021/04/07 00:23:00;;;;;;;1999.90;999.90;;;;;;;1.71;100.00;94808.88;5043855;28;20440;-29
2021/04/07 00:25:46;;;;;;;1999.90;999.90;;;;;;;2.07;100.00;95846.06;5038469;28;20467;-29
2021/04/07 00:28:33;;;;;;;1999.90;999.90;;;;;;;1.51;100.00;89241.81;5038175;28;20443;-29
2021/04/07 00:31:18;;;;;;;1999.90;999.90;;;;;;;1.75;100.00;96445.31;5037213;28;20452;-28
2021/04/07 00:34:03;;;;;;;1999.90;999.90;;;;;;;1.89;100.00;90928.31;5040856;28;20479;-28
2021/04/07 00:36:50;;;;;;;1999.90;999.90;;;;;;;1.69;100.00;88618.69;5040674;28;20451;-29
2021/04/07 00:39:37;;;;;;;1999.90;999.90;;;;;;;1.88;100.00;90274.69;5039906;28;20559;-28
2021/04/07 00:42:23;;;;;;;1999.90;999.90;;;;;;;1.54;100.00;89571.78;5037232;28;20946;-29
2021/04/07 00:45:11;;;;;;;1999.90;999.90;;;;;;;1.69;100.00;93828.91;5040374;28;20854;-29
2021/04/07 00:47:57;;;;;;;1999.90;999.90;;;;;;;1.87;100.00;89621.97;5042157;28;20443;-28
2021/04/07 00:50:43;;;;;;;1999.90;999.90;;;;;;;1.17;100.00;85940.16;5046528;28;20444;-29
2021/04/07 00:53:32;;;;;;;1999.90;999.90;;;;;;;1.09;100.00;93081.06;5043977;28;20530;-29
2021/04/07 00:56:18;;;;;;;1999.90;999.90;;;;;;;1.57;100.00;98045.44;5042118;28;20448;-28
2021/04/07 00:59:06;;;;;;;1999.90;999.90;;;;;;;1.25;100.00;92131.13;5041822;28;20443;-28
2021/04/07 01:01:52;;;;;;;1999.90;999.90;;;;;;;0.91;100.00;96308.28;5041838;28;20907;-28
2021/04/07 01:04:38;;;;;;;1999.90;999.90;;;;;;;1.14;100.00;96019.94;5041220;28;20490;-28
2021/04/07 01:07:24;;;;;;;1999.90;999.90;;;;;;;1.03;100.00;96653.03;5046170;28;20447;-28
2021/04/07 01:10:11;;;;;;;1999.90;999.90;;;;;;;0.97;100.00;96969.53;5043025;28;20551;-28
2021/04/07 01:13:00;;;;;;;1999.90;999.90;;;;;;;0.80;100.00;98568.47;5041342;28;20494;-29
2021/04/07 01:15:45;;;;;;;1999.90;999.90;;;;;;;1.17;100.00;99282.34;5040867;28;20506;-29
2021/04/07 01:18:33;;;;;;;1999.90;999.90;;;;;;;1.12;100.00;94387.81;5041014;28;20447;-29
2021/04/07 01:21:22;;;;;;;1999.90;999.90;;;;;;;1.05;100.00;93075.44;5047721;28;20447;-29
2021/04/07 01:24:10;;;;;;;1999.90;999.90;;;;;;;1.18;100.00;92119.22;5042480;28;20465;-28
2021/04/07 01:26:56;;;;;;;1999.90;999.90;;;;;;;1.18;100.00;86266.53;5040882;28;20506;-28
2021/04/07 01:29:41;;;;;;;1999.90;999.90;;;;;;;1.09;100.00;88203.56;5040391;28;20567;-28
2021/04/07 01:32:27;;;;;;;1999.90;999.90;;;;;;;1.29;100.00;86932.91;5040338;28;20741;-28
2021/04/07 01:35:15;;;;;;;1999.90;999.90;;;;;;;1.45;100.00;83706.31;5048963;28;20447;-28
2021/04/07 01:38:00;;;;;;;1999.90;999.90;;;;;;;0.95;100.00;80067.50;5041040;28;20502;-29
2021/04/07 01:40:50;;;;;;;1999.90;999.90;;;;;;;1.16;100.00;86263.56;5040918;28;20448;-29
2021/04/07 01:43:37;;;;;;;1999.90;999.90;;;;;;;1.04;100.00;83000.09;5040631;28;20456;-28
2021/04/07 01:46:23;;;;;;;1999.90;999.90;;;;;;;0.88;100.00;86547.41;5044524;28;20535;-28
2021/04/07 01:49:09;;;;;;;1999.90;999.90;;;;;;;0.54;100.00;87796.72;5043508;28;20479;-28
2021/04/07 01:51:55;;;;;;;1999.90;999.90;;;;;;;0.76;100.00;93029.72;5041326;28;20447;-28
2021/04/07 01:54:40;;;;;;;1999.90;999.90;;;;;;;0.82;100.00;93364.59;5040951;28;20638;-28
2021/04/07 01:57:27;;;;;;;1999.90;999.90;;;;;;;1.01;100.00;93720.59;5041457;28;20522;-28
2021/04/07 02:00:16;;;;;;;1999.90;999.90;;;;;;;1.18;100.00;92444.63;5042463;28;20892;-29
2021/04/07 02:03:02;;;;;;;1999.90;999.90;;;;;;;0.92;100.00;88828.38;5042738;28;20527;-29
2021/04/07 02:05:48;;;;;;;1999.90;999.90;;;;;;;1.51;100.00;90218.69;5041470;28;20451;-29
2021/04/07 02:08:35;;;;;;;1999.90;999.90;;;;;;;1.27;100.00;86605.66;5039856;28;20443;-29
2021/04/07 02:11:21;;;;;;;1999.90;999.90;;;;;;;1.24;100.00;84651.03;5040731;28;20887;-29
2021/04/07 02:14:08;;;;;;;1999.90;999.90;;;;;;;1.62;100.00;82106.47;5043555;28;20482;-28
2021/04/07 02:16:54;;;;;;;1999.90;999.90;;;;;;;1.66;100.00;80489.00;5039844;28;20452;-28
2021/04/07 02:19:40;;;;;;;1999.90;999.90;;;;;;;1.17;100.00;75234.00;5042345;28;20570;-29
2021/04/07 02:22:27;;;;;;;1999.90;999.90;;;;;;;1.18;100.00;77179.25;5040225;28;20443;-29
2021/04/07 02:25:14;;;;;;;1999.90;999.90;;;;;;;1.25;100.00;77188.56;5040026;28;20444;-28
2021/04/07 02:27:59;;;;;;;1999.90;999.90;;;;;;;1.31;100.00;76548.13;5043065;28;20443;-29
2021/04/07 02:30:45;;;;;;;1999.90;999.90;;;;;;;1.62;100.00;73670.84;5042784;28;20756;-29
2021/04/07 02:33:32;;;;;;;1999.90;999.90;;;;;;;1.48;100.00;69118.81;5040902;28;20902;-28
2021/04/07 02:36:18;;;;;;;1999.90;999.90;;;;;;;1.34;100.00;64897.34;5039489;28;20507;-28
2021/04/07 02:39:04;;;;;;;1999.90;999.90;;;;;;;1.27;100.00;73626.94;5040143;28;20451;-29
2021/04/07 02:41:50;;;;;;;1999.90;999.90;;;;;;;1.36;100.00;70723.53;5043789;28;20558;-29
2021/04/07 02:44:37;;;;;;;1999.90;999.90;;;;;;;1.43;100.00;73322.66;5040955;28;20887;-28
2021/04/07 02:47:25;;;;;;;1999.90;999.90;;;;;;;1.21;100.00;74591.16;5042288;28;20447;-28
2021/04/07 02:50:14;;;;;;;1999.90;999.90;;;;;;;1.52;100.00;79170.56;5039871;28;20445;-29
2021/04/07 02:53:00;;;;;;;1999.90;999.90;;;;;;;1.19;100.00;76532.28;5040225;28;20569;-29
2021/04/07 02:55:46;;;;;;;1999.90;999.90;;;;;;;1.47;100.00;78839.25;5042661;28;20452;-29
2021/04/07 02:58:31;;;;;;;1999.90;999.90;;;;;;;1.04;100.00;74893.16;5041158;28;20578;-28
2021/04/07 03:01:17;;;;;;;1999.90;999.90;;;;;;;1.41;100.00;79480.69;5039894;28;20491;-28
2021/04/07 03:04:04;;;;;;;1999.90;999.90;;;;;;;1.44;100.00;76241.03;5042417;28;20444;-29
2021/04/07 03:06:49;;;;;;;1999.90;999.90;;;;;;;1.46;100.00;77216.56;5039863;28;20891;-28
2021/04/07 03:09:35;;;;;;;1999.90;999.90;;;;;;;1.46;100.00;73325.81;5039574;28;20538;-29
2021/04/07 03:12:20;;;;;;;1999.90;999.90;;;;;;;1.28;100.00;74923.56;5044634;28;20456;-29
2021/04/07 03:15:09;;;;;;;1999.90;999.90;;;;;;;1.53;100.00;77874.03;5038913;28;20474;-28
2021/04/07 03:17:55;;;;;;;1999.90;999.90;;;;;;;1.44;100.00;73323.91;5038805;28;20444;-29
2021/04/07 03:20:42;;;;;;;1999.90;999.90;;;;;;;1.53;100.00;74307.63;5039738;28;20915;-29
2021/04/07 03:23:28;;;;;;;1999.90;999.90;;;;;;;1.31;100.00;72011.91;5039799;28;20745;-28
2021/04/07 03:26:14;;;;;;;1999.90;999.90;;;;;;;1.47;100.00;78191.03;5044937;28;20468;-29
2021/04/07 03:29:00;;;;;;;1999.90;999.90;;;;;;;1.44;100.00;74295.41;5041937;28;20496;-28
2021/04/07 03:31:46;;;;;;;1999.90;999.90;;;;;;;1.49;100.00;73006.22;5039710;28;20455;-28
2021/04/07 03:34:31;;;;;;;1999.90;999.90;;;;;;;1.34;100.00;73311.25;5038308;28;20747;-29
2021/04/07 03:37:18;;;;;;;1999.90;999.90;;;;;;;1.44;100.00;73971.97;5038553;28;20856;-29
2021/04/07 03:40:05;;;;;;;1999.90;999.90;;;;;;;1.63;100.00;70107.56;5040228;28;20946;-28
2021/04/07 03:42:50;;;;;;;1999.90;999.90;;;;;;;1.58;100.00;66864.66;5042771;28;20439;-28
2021/04/07 03:45:36;;;;;;;1999.90;999.90;;;;;;;1.77;100.00;63974.75;5040981;28;20460;-28
2021/04/07 03:48:25;;;;;;;1999.90;999.90;;;;;;;1.98;100.00;57854.97;5040979;28;20449;-31
2021/04/07 03:51:11;;;;;;;1999.90;999.90;;;;;;;1.85;100.00;49496.47;5038245;28;20539;-29
2021/04/07 03:53:57;;;;;;;1999.90;999.90;;;;;;;1.84;100.00;47542.25;5038166;28;20488;-29
2021/04/07 03:56:43;;;;;;;1999.90;999.90;;;;;;;1.62;100.00;47932.41;5042394;28;20443;-29
2021/04/07 03:59:29;;;;;;;1999.90;999.90;;;;;;;1.86;100.00;45775.09;5039106;28;20447;-29
2021/04/07 04:02:14;;;;;;;1999.90;999.90;;;;;;;1.66;100.00;42087.59;5037695;28;20880;-29
2021/04/07 04:05:00;;;;;;;1999.90;999.90;;;;;;;1.74;100.00;43952.97;5038778;28;20443;-29
2021/04/07 04:07:46;;;;;;;1999.90;999.90;;;;;;;1.76;100.00;42559.13;5038536;28;20555;-29
2021/04/07 04:10:33;;;;;;;1999.90;999.90;;;;;;;1.84;100.00;48642.16;5043510;28;20452;-29
2021/04/07 04:13:21;;;;;;;1999.90;999.90;;;;;;;1.88;100.00;42455.34;5039720;28;20953;-29
2021/04/07 04:16:07;;;;;;;1999.90;999.90;;;;;;;2.13;100.00;41978.22;5037938;28;20464;-29
2021/04/07 04:18:54;;;;;;;1999.90;999.90;;;;;;;2.00;100.00;37140.28;5040349;28;20479;-29
2021/04/07 04:21:39;;;;;;;1999.90;999.90;;;;;;;2.01;100.00;33517.53;5037227;28;20444;-29
2021/04/07 04:24:25;;;;;;;1999.90;999.90;;;;;;;2.20;100.00;42425.94;5045128;28;20459;-29
2021/04/07 04:27:11;;;;;;;1999.90;999.90;;;;;;;2.02;100.00;43840.81;5038499;28;20444;-29
2021/04/07 04:29:57;;;;;;;1999.90;999.90;;;;;;;2.18;100.00;39794.91;5037660;28;20443;-29
2021/04/07 04:32:43;;;;;;;1999.90;999.90;;;;;;;2.07;100.00;45636.28;5040004;28;20730;-29
2021/04/07 04:35:29;;;;;;;1999.90;999.90;;;;;;;2.25;100.00;40711.91;5041904;28;20541;-29
2021/04/07 04:38:16;;;;;;;1999.90;999.90;;;;;;;2.32;100.00;40855.19;5041235;28;20447;-29
2021/04/07 04:41:03;;;;;;;1999.90;999.90;;;;;;;2.11;100.00;32426.69;5037087;28;20600;-29
2021/04/07 04:43:51;;;;;;;1999.90;999.90;;;;;;;2.24;100.00;35558.59;5037637;28;20737;-29
2021/04/07 04:46:37;;;;;;;1999.90;999.90;;;;;;;2.23;100.00;33412.34;5038191;28;20723;-29
2021/04/07 04:49:23;;;;;;;1999.90;999.90;;;;;;;2.24;100.00;31613.94;5042578;28;20718;-29
2021/04/07 04:52:10;;;;;;;1999.90;999.90;;;;;;;2.34;100.00;33760.16;5038190;28;20737;-29
2021/04/07 04:54:55;;;;;;;1999.90;999.90;;;;;;;2.00;100.00;32869.56;5037842;28;20592;-29
2021/04/07 04:57:41;;;;;;;1999.90;999.90;;;;;;;2.06;100.00;35851.66;5039234;28;20562;-29
2021/04/07 05:00:27;;;;;;;1999.90;999.90;;;;;;;2.30;100.00;34010.97;5042028;28;20443;-30
2021/04/07 05:03:13;;;;;;;1999.90;999.90;;;;;;;2.34;100.00;29222.19;5040365;28;20440;-29
2021/04/07 05:05:59;;;;;;;1999.90;999.90;;;;;;;2.06;100.00;27013.41;5037704;28;20444;-29
2021/04/07 05:08:45;;;;;;;1999.90;999.90;;;;;;;2.23;100.00;26568.22;5038381;28;20514;-30
2021/04/07 05:11:32;;;;;;;1999.90;999.90;;;;;;;2.22;100.00;28253.81;5038135;28;20564;-29
2021/04/07 05:14:18;;;;;;;1999.90;999.90;;;;;;;2.24;100.00;26115.13;5040606;28;20573;-30
2021/04/07 05:17:04;;;;;;;1999.90;999.90;;;;;;;2.29;100.00;34964.53;5039116;28;20446;-30
2021/04/07 05:19:50;;;;;;;1999.90;999.90;;;;;;;2.04;100.00;31279.59;5039590;28;20482;-30
2021/04/07 05:22:36;;;;;;;1999.90;999.90;;;;;;;1.98;100.00;32838.31;5039171;28;20550;-30
2021/04/07 05:25:21;;;;;;;1999.90;999.90;;;;;;;2.30;100.00;34957.28;5039212;28;20451;-29
2021/04/07 05:28:09;;;;;;;1999.90;999.90;;;;;;;2.37;100.00;30688.16;5040780;28;20512;-27
2021/04/07 05:31:01;;;;;;;1999.90;999.90;;;;;;;2.65;100.00;27653.16;5041868;28;20618;-30
2021/04/07 05:33:48;;;;;;;1999.90;999.90;;;;;;;2.31;100.00;30273.63;5041816;28;20482;-30
2021/04/07 05:36:33;;;;;;;1999.90;999.90;;;;;;;2.51;100.00;31538.75;5042159;28;20491;-29
2021/04/07 05:39:19;;;;;;;1999.90;999.90;;;;;;;2.44;100.00;25150.00;5044971;28;20452;-29
2021/04/07 05:42:05;;;;;;;1999.90;999.90;;;;;;;2.75;100.00;27254.63;5041674;28;20447;-29
2021/04/07 05:44:54;;;;;;;1999.90;999.90;;;;;;;2.71;100.00;25264.72;5043678;28;20456;-29
2021/04/07 05:47:42;;;;;;;1999.90;999.90;;;;;;;2.74;100.00;23535.00;5042371;28;20867;-30
2021/04/07 05:50:29;;;;;;;1999.90;999.90;;;;;;;2.63;100.00;28469.84;5041240;28;20447;-29
2021/04/07 05:53:14;;;;;;;1999.90;999.90;;;;;;;2.63;100.00;28219.06;5044579;28;20918;-29
2021/04/07 05:56:01;;;;;;;1999.90;999.90;;;;;;;2.26;100.00;26582.19;5041067;28;20878;-29
2021/04/07 05:58:46;;;;;;;1999.90;999.90;;;;;;;2.35;100.00;33216.16;5046828;28;20440;-29
2021/04/07 06:01:33;;;;;;;1999.90;999.90;;;;;;;2.67;100.00;36160.63;5041011;28;20443;-29
2021/04/07 06:04:18;;;;;;;1999.90;999.90;;;;;;;2.52;100.00;39363.22;5042493;28;20483;-29
2021/04/07 06:07:05;;;;;;;1999.90;999.90;;;;;;;2.01;100.00;42929.75;5042961;28;20567;-29
2021/04/07 06:09:51;;;;;;;1999.90;999.90;;;;;;;2.17;100.00;53614.91;5041105;28;20455;-29
2021/04/07 06:12:37;;;;;;;1999.90;999.90;;;;;;;2.15;100.00;56867.44;5041352;28;20507;-29
2021/04/07 06:15:24;;;;;;;1999.90;999.90;;;;;;;2.38;100.00;58632.66;5044099;28;20507;-29
2021/04/07 06:18:12;;;;;;;1999.90;999.90;;;;;;;2.57;100.00;62190.44;5047765;28;20448;-29
2021/04/07 06:20:59;;;;;;;1999.90;999.90;;;;;;;2.22;100.00;62577.91;5060714;28;20442;-29
2021/04/07 06:23:54;;;;;;;1999.90;999.90;;;;;;;2.53;100.00;72486.53;5061688;28;20586;-29
2021/04/07 06:26:42;;;;;;;1999.90;999.90;;;;;;;2.65;100.00;73474.78;5061551;28;20727;-29
2021/04/07 06:29:27;;;;;;;1999.90;999.90;;;;;;;2.31;100.00;64954.69;5060474;28;20447;-29
2021/04/07 06:32:13;;;;;;;1999.90;999.90;;;;;;;2.26;100.00;74399.44;5060901;28;20885;-29
2021/04/07 06:34:59;;;;;;;1999.90;999.90;;;;;;;2.64;100.00;78346.38;5063449;28;20474;-29
2021/04/07 06:37:47;;;;;;;1999.90;999.90;;;;;;;2.90;100.00;77406.03;5061247;28;20439;-29
2021/04/07 06:40:34;;;;;;;1999.90;999.90;;;;;;;2.71;100.00;73807.75;5059936;28;20714;-29
2021/04/07 06:43:22;;;;;;;1999.90;999.90;;;;;;;2.41;100.00;78316.63;5058926;28;20443;-29
2021/04/07 06:46:11;;;;;;;1999.90;999.90;;;;;;;2.61;100.00;78992.44;5060574;28;20455;-29
2021/04/07 06:48:59;;;;;;;1999.90;999.90;;;;;;;2.59;100.00;78664.66;5060773;28;20463;-29
2021/04/07 06:51:45;;;;;;;1999.90;999.90;;;;;;;2.46;100.00;80923.22;5059590;28;20470;-29
2021/04/07 06:54:38;;;;;;;1999.90;999.90;;;;;;;2.71;100.00;85514.25;5059068;28;20751;-29
2021/04/07 06:57:24;;;;;;;1999.90;999.90;;;;;;;2.65;100.00;85505.41;5059053;28;20443;-29
2021/04/07 07:00:13;;;;;;;1999.90;999.90;;;;;;;2.69;100.00;85837.00;5061581;28;20438;-30
2021/04/07 07:03:04;;;;;;;1999.90;999.90;;;;;;;2.93;100.00;85220.16;5060890;28;20498;-27
2021/04/07 07:05:51;;;;;;;1999.90;999.90;;;;;;;3.03;100.00;79049.69;5058644;28;20443;-29
2021/04/07 07:08:59;;;;;;;1999.90;999.90;;;;;;;2.41;100.00;71174.50;5054612;28;20464;-29
2021/04/07 07:11:46;;;;;;;1999.90;999.90;;;;;;;2.61;100.00;74769.13;5046303;28;20471;-29
2021/04/07 07:14:36;;;;;;;1999.90;999.90;;;;;;;2.68;100.00;76726.72;5044812;28;20775;-29
2021/04/07 07:17:28;;;;;;;1999.90;999.90;;;;;;;2.73;100.00;77708.38;5056852;28;21055;-29
2021/04/07 07:20:14;;;;;;;1999.90;999.90;;;;;;;2.63;100.00;75745.47;5038841;28;20475;-29
2021/04/07 07:23:03;;;;;;;1999.90;999.90;;;;;;;2.75;100.00;78686.38;5038712;28;20487;-29
2021/04/07 07:25:55;;;;;;;1999.90;999.90;;;;;;;2.85;100.00;79674.97;5039259;28;20464;-29
2021/04/07 07:28:43;;;;;;;1999.90;999.90;;;;;;;2.98;100.00;76441.38;5038844;28;20447;-29
2021/04/07 07:31:30;;;;;;;1999.90;999.90;;;;;;;3.03;100.00;74172.16;5043870;28;20499;-29
2021/04/07 07:34:24;;;;;;;1999.90;999.90;;;;;;;3.07;100.00;68332.53;5037976;28;20487;-29
2021/04/07 07:37:24;;;;;;;1999.90;999.90;;;;;;;3.01;100.00;67676.63;5037527;28;20542;-28
2021/04/07 07:40:25;;;;;;;1999.90;999.90;;;;;;;2.96;100.00;68969.03;5037596;28;20549;-29
2021/04/07 07:43:13;;;;;;;1999.90;999.90;;;;;;;3.20;100.00;67016.41;5037276;28;20467;-29
2021/04/07 07:46:10;;;;;;;1999.90;999.90;;;;;;;3.15;100.00;66582.91;5038414;28;20867;-29
2021/04/07 07:48:58;;;;;;;1999.90;999.90;;;;;;;2.68;100.00;61786.94;5038768;28;20541;-29
2021/04/07 07:51:45;;;;;;;1999.90;999.90;;;;;;;2.98;100.00;66421.47;5037966;28;20753;-29
2021/04/07 07:54:41;;;;;;;1999.90;999.90;;;;;;;3.16;100.00;63498.59;5039627;28;20495;-30
2021/04/07 07:58:20;;;;;;;1999.90;999.90;;;;;;;3.43;100.00;59152.44;5046648;28;20450;-29
2021/04/07 08:01:10;;;;;;;1999.90;999.90;;;;;;;3.29;100.00;53864.03;5057543;28;20450;-29
2021/04/07 08:04:05;;;;;;;1999.90;999.90;;;;;;;3.60;100.00;52502.44;5037661;28;20571;-29
2021/04/07 08:06:51;;;;;;;1999.90;999.90;;;;;;;3.41;100.00;46676.94;5037803;28;20563;-29
2021/04/07 08:09:39;;;;;;;1999.90;999.90;;;;;;;3.60;100.00;41961.44;5037528;28;20534;-30
2021/04/07 08:12:25;;;;;;;1999.90;999.90;;;;;;;3.44;100.00;36901.34;5038483;28;20455;-30
2021/04/07 08:15:14;;;;;;;1999.90;999.90;;;;;;;3.58;100.00;39848.56;5059163;28;20483;-30
2021/04/07 08:18:00;;;;;;;1999.90;999.90;;;;;;;3.48;100.00;44319.44;5058603;28;20740;-30
2021/04/07 08:20:50;;;;;;;1999.90;999.90;;;;;;;3.65;100.00;41786.16;5057226;28;20678;-30
2021/04/07 08:23:37;;;;;;;1999.90;999.90;;;;;;;3.14;100.00;41870.09;5058348;28;20485;-30
2021/04/07 08:26:32;;;;;;;1999.90;999.90;;;;;;;3.31;100.00;44616.31;5048578;28;20455;-31
2021/04/07 08:29:24;;;;;;;1999.90;999.90;;;;;;;3.55;100.00;45792.31;5040085;28;20528;-30
2021/04/07 08:32:10;;;;;;;1999.90;999.90;;;;;;;3.25;100.00;39516.22;5039079;28;20598;-31
2021/04/07 08:34:57;;;;;;;1999.90;999.90;;;;;;;3.26;100.00;45224.97;5038530;28;20487;-31
2021/04/07 08:37:43;;;;;;;1999.90;999.90;;;;;;;3.04;100.00;44228.19;5038328;28;20444;-31
2021/04/07 08:40:38;;;;;;;1999.90;999.90;;;;;;;2.98;100.00;50705.78;5038146;28;20802;-30
2021/04/07 08:43:28;;;;;;;1999.90;999.90;;;;;;;3.57;100.00;53778.56;5038081;28;20447;-31
2021/04/07 08:46:16;;;;;;;1999.90;999.90;;;;;;;3.31;100.00;48517.94;5037854;28;20444;-31
2021/04/07 08:49:08;;;;;;;1999.90;999.90;;;;;;;3.65;100.00;47021.63;5039509;28;20503;-32
2021/04/07 08:51:56;;;;;;;1999.90;999.90;;;;;;;4.04;100.00;42006.00;5042412;28;20447;-30
2021/04/07 08:54:45;;;;;;;1999.90;999.90;;;;;;;4.18;100.00;32488.66;5057489;28;20582;-31
2021/04/07 08:57:38;;;;;;;1999.90;999.90;;;;;;;4.43;100.00;28202.66;5057300;28;20299;-31
2021/04/07 09:00:27;;;;;;;1999.90;999.90;;;;;;;4.53;100.00;18560.56;5056752;28;20200;-31
2021/04/07 09:03:15;;;;;;;1999.90;999.90;;;;;;;4.40;100.00;20194.91;5057056;28;20599;-30
2021/04/07 09:06:12;;;;;;;1999.90;999.90;;;;;;;4.50;100.00;23309.84;5061154;28;20200;-42
2021/04/07 09:08:58;;;;;;;1999.90;999.90;;;;;;;3.81;100.00;24571.19;5065323;28;20196;-31
2021/04/07 09:11:47;;;;;;;1999.90;999.90;;;;;;;4.19;100.00;33478.69;5055508;28;20204;-31
2021/04/07 09:14:35;;;;;;;1999.90;999.90;;;;;;;4.47;100.00;40043.47;5041450;28;20228;-31
2021/04/07 09:17:21;;;;;;;1999.90;999.90;;;;;;;4.52;100.00;31047.72;5040303;28;20251;-31
2021/04/07 09:20:13;;;;;;;1999.90;999.90;;;;;;;3.99;100.00;35684.81;5041188;28;20512;-31
2021/04/07 09:23:17;;;;;;;1999.90;999.90;;;;;;;4.20;100.00;39891.22;5042294;28;20575;-31
2021/04/07 09:26:08;;;;;;;1999.90;999.90;;;;;;;4.92;100.00;40145.03;5040881;28;20192;-31
2021/04/07 09:28:56;;;;;;;1999.90;999.90;;;;;;;4.18;100.00;34444.88;5039684;28;20197;-31
2021/04/07 09:31:42;;;;;;;1999.90;999.90;;;;;;;4.25;100.00;35708.41;5040686;28;20205;-31
2021/04/07 09:34:32;;;;;;;1999.90;999.90;;;;;;;4.60;100.00;40002.13;5040448;28;20229;-30
2021/04/07 09:37:17;;;;;;;1999.90;999.90;;;;;;;4.83;100.00;43229.94;5041212;28;20280;-30
2021/04/07 09:40:04;;;;;;;1999.90;999.90;;;;;;;4.95;100.00;42733.72;5040787;28;20196;-31
2021/04/07 09:42:52;;;;;;;1999.90;999.90;;;;;;;4.22;100.00;31806.72;5043215;28;20208;-30
2021/04/07 09:45:39;;;;;;;1999.90;999.90;;;;;;;4.12;100.00;47097.66;5060702;28;20308;-31
2021/04/07 09:48:50;;;;;;;1999.90;999.90;;;;;;;4.38;100.00;60414.94;5060289;28;20205;-30
2021/04/07 09:51:37;;;;;;;1999.90;999.90;;;;;;;4.45;100.00;61354.97;5050817;28;20575;-31
2021/04/07 09:54:27;;;;;;;1999.90;999.90;;;;;;;4.65;100.00;59823.28;5059516;28;20370;-31
2021/04/07 09:57:12;;;;;;;1999.90;999.90;;;;;;;4.35;100.00;57895.13;5062405;28;20199;-31
2021/04/07 10:00:00;;;;;;;1999.90;999.90;;;;;;;5.40;100.00;64756.00;5060967;28;20612;-31
2021/04/07 10:03:02;;;;;;;1999.90;999.90;;;;;;;5.20;100.00;49228.03;5060081;28;20355;-30
2021/04/07 10:05:53;;;;;;;1999.90;999.90;;;;;;;6.08;100.00;33675.03;5058246;28;20252;-32
2021/04/07 10:08:39;;;;;;;1999.90;999.90;;;;;;;6.60;100.00;8324.00;5058577;28;20200;-31
2021/04/07 10:11:27;;;;;;;1999.90;999.90;;;;;;;8.39;100.00;-8996.34;5059084;28;20297;-31
2021/04/07 10:14:13;;;;;;;1999.90;999.90;;;;;;;8.35;100.00;-18132.16;5042253;28;20299;-32
2021/04/07 10:17:11;;;;;;;1999.90;999.90;;;;;;;8.70;100.00;-18141.41;5038242;28;20200;-31
2021/04/07 10:20:06;;;;;;;1999.90;999.90;;;;;;;7.76;100.00;-18116.47;5040270;28;20248;-31
2021/04/07 10:22:52;;;;;;;1999.90;999.90;;;;;;;5.81;100.00;-18064.97;5054098;28;20202;-31
2021/04/07 10:25:38;;;;;;;1999.90;999.90;;;;;;;5.91;100.00;-9337.19;5058742;28;20197;-31
2021/04/07 10:28:24;;;;;;;1999.90;999.90;;;;;;;6.13;100.00;-6656.56;5046245;28;20356;-31
2021/04/07 10:31:11;;;;;;;1999.90;999.90;;;;;;;6.71;100.00;-5820.41;5039525;28;20299;-31
2021/04/07 10:34:09;;;;;;;1999.90;999.90;;;;;;;6.41;100.00;-11668.94;5047570;28;20197;-31
2021/04/07 10:36:55;;;;;;;1999.90;999.90;;;;;;;7.54;100.00;-16664.94;5039600;28;20207;-31
2021/04/07 10:39:42;;;;;;;1999.90;999.90;;;;;;;7.02;100.00;-18097.03;5039559;28;20315;-31
2021/04/07 10:42:29;;;;;;;1999.90;999.90;;;;;;;8.33;100.00;-18131.63;5039568;28;20203;-30
2021/04/07 10:45:18;;;;;;;1999.90;999.90;;;;;;;8.09;100.00;-18125.19;5059365;28;20603;-31
2021/04/07 10:48:07;;;;;;;1999.90;999.90;;;;;;;7.93;100.00;-18121.16;5058963;28;20497;-31
2021/04/07 10:50:53;;;;;;;1999.90;999.90;;;;;;;8.22;100.00;-18128.66;5058490;28;20196;-30
2021/04/07 10:53:42;;;;;;;1999.90;999.90;;;;;;;7.87;100.00;-18119.56;5057898;28;20259;-30
2021/04/07 10:56:30;;;;;;;1999.90;999.90;;;;;;;7.53;100.00;-18110.44;5057502;28;20576;-30
2021/04/07 10:59:27;;;;;;;1999.90;999.90;;;;;;;7.23;100.00;-18102.69;5059177;28;20199;-30
2021/04/07 11:02:14;;;;;;;1999.90;999.90;;;;;;;6.64;100.00;-18087.00;5058767;28;20598;-30
2021/04/07 11:05:12;;;;;;;1999.90;999.90;;;;;;;6.93;100.00;-18094.63;5057130;28;20190;-30
2021/04/07 11:08:01;;;;;;;1999.90;999.90;;;;;;;7.65;100.00;-18113.66;5068507;28;20262;-30
2021/04/07 11:10:53;;;;;;;1999.90;999.90;;;;;;;7.69;100.00;-18114.75;5049412;28;20205;-29
2021/04/07 11:13:39;;;;;;;1999.90;999.90;;;;;;;7.59;100.00;-18112.19;5052414;28;20434;-31
2021/04/07 11:16:32;;;;;;;1999.90;999.90;;;;;;;7.53;100.00;-18110.44;5058082;28;20203;-31
2021/04/07 11:19:18;;;;;;;1999.90;999.90;;;;;;;7.58;100.00;-18111.78;5057313;28;20234;-31
2021/04/07 11:22:07;;;;;;;1999.90;999.90;;;;;;;7.50;100.00;-18109.78;5059031;28;20198;-31
2021/04/07 11:24:55;;;;;;;1999.90;999.90;;;;;;;7.25;100.00;-18103.06;5058222;28;20668;-31
2021/04/07 11:27:42;;;;;;;1999.90;999.90;;;;;;;6.57;100.00;-10639.84;5055800;28;20241;-31
2021/04/07 11:30:31;;;;;;;1999.90;999.90;;;;;;;6.39;100.00;12472.13;5048768;28;20423;-31
2021/04/07 11:33:22;;;;;;;1999.90;999.90;;;;;;;5.11;100.00;28735.19;5058295;28;20199;-30
2021/04/07 11:36:45;;;;;;;1999.90;999.90;;;;;;;5.17;100.00;59993.41;5057262;28;20204;-31
2021/04/07 11:39:57;;;;;;;1999.90;999.90;;;;;;;5.34;100.00;77074.09;5038823;28;20201;-30
2021/04/07 11:42:56;;;;;;;1999.90;999.90;;;;;;;5.27;100.00;85232.00;5037226;28;20485;-30
2021/04/07 11:45:42;;;;;;;1999.90;999.90;;;;;;;5.22;100.00;90459.94;5043566;28;20335;-31
2021/04/07 11:48:44;;;;;;;1999.90;999.90;;;;;;;5.10;100.00;91097.63;5061990;28;20227;-31
2021/04/07 11:51:32;;;;;;;1999.90;999.90;;;;;;;5.90;100.00;94499.66;5046049;28;20209;-30
2021/04/07 11:54:19;;;;;;;1999.90;999.90;;;;;;;6.66;100.00;92651.53;5038375;28;20220;-30
2021/04/07 11:57:07;;;;;;;1999.90;999.90;;;;;;;6.80;100.00;82503.91;5044448;28;20220;-30
2021/04/07 12:00:00;;;;;;;1999.90;999.90;;;;;;;7.03;100.00;67274.13;5056994;28;20472;-31
2021/04/07 12:02:46;;;;;;;1999.90;999.90;;;;;;;7.33;100.00;59019.72;5056886;28;20311;-31
2021/04/07 12:05:32;;;;;;;1999.90;999.90;;;;;;;6.68;100.00;48471.81;5056643;28;20356;-31
2021/04/07 12:08:20;;;;;;;1999.90;999.90;;;;;;;6.25;100.00;49646.03;5056228;28;20206;-31
2021/04/07 12:11:11;;;;;;;1999.90;999.90;;;;;;;6.60;100.00;66006.03;5051245;28;20210;-30
2021/04/07 12:13:57;;;;;;;1999.90;999.90;;;;;;;6.85;100.00;63740.88;5037200;28;20210;-31
2021/04/07 12:16:46;;;;;;;1999.90;999.90;;;;;;;6.52;100.00;65213.41;5036845;28;20296;-30
2021/04/07 12:19:32;;;;;;;1999.90;999.90;;;;;;;6.24;100.00;71190.25;5037446;28;20372;-30
2021/04/07 12:22:18;;;;;;;1999.90;999.90;;;;;;;6.12;100.00;74236.69;5036134;28;20200;-30
2021/04/07 12:25:04;;;;;;;1999.90;999.90;;;;;;;6.50;100.00;78534.53;5036665;28;20198;-30
2021/04/07 12:27:50;;;;;;;1999.90;999.90;;;;;;;6.62;100.00;77895.72;5038037;28;20209;-30